Latest Coastal Weather Observations for Legendre Island

IDW60701

Issued at 11:45 am WST Friday 25 July 2014 (issued every 10 minutes, with the page automatically refreshed every 10 minutes)

About coastal observations | Map of coastal stations | Coastal observations for WA | Marine services | Other Formats
Station Details ID: 004095 Name: LEGENDRE ISLAND Lat: -20.36 Lon: 116.84 Height: 29.0 m
Data from the previous 72 hours. | See also: Recent months for locations in Western Australia
Date/Time
WST
Temp

°C
Wind Pressure Rain
since 9am
mm
Weather Cloud Vis
km
Sea
Height
m
Swell
Dir
 
Speed
knots
Gust
knots
hPa Trend Height
m
Period
s
Dir
25/11:30am 20.6 E 18 22 1021.6 - - - - - - - - -
25/11:00am 20.5 E 18 22 1021.7 - - - - - - - - -
25/10:30am 20.4 E 21 25 1021.8 - - - - - - - - -
25/10:00am 20.3 E 22 26 1021.7 - - - - - - - - -
25/09:30am 20.1 E 22 25 1021.8 - - - - - - - - -
25/09:00am 20.0 E 21 26 1021.6 - - - - - - - - -
25/08:30am 20.1 E 22 25 1021.2 - - - - - - - - -
25/08:00am 19.7 E 22 25 1020.7 - - - - - - - - -
25/07:30am 19.3 E 21 26 1020.3 - - - - - - - - -
25/07:00am 18.7 E 19 23 1019.6 - - - - - - - - -
25/06:30am 18.5 ESE 20 24 1019.3 - - - - - - - - -
25/06:00am 18.5 ESE 20 24 1018.6 - - - - - - - - -
25/05:30am 19.2 E 22 25 1017.8 - - - - - - - - -
25/05:00am 19.3 E 22 25 1017.4 - - - - - - - - -
25/04:30am 19.0 ESE 18 22 1017.9 - - - - - - - - -
25/04:00am 17.5 ESE 13 17 1018.0 - - - - - - - - -
25/03:30am 17.3 SE 13 16 1018.4 - - - - - - - - -
25/03:00am 16.2 SE 12 14 1018.4 - - - - - - - - -
25/02:30am 16.5 SE 11 12 1018.8 - - - - - - - - -
25/02:00am 17.8 SE 13 16 1018.6 - - - - - - - - -
25/01:30am 17.5 SE 12 15 1018.7 - - - - - - - - -
25/01:00am 17.6 SE 11 13 1018.8 - - - - - - - - -
25/12:30am 17.8 SE 11 13 1019.0 - - - - - - - - -
25/12:00am 20.5 ESE 14 17 1018.9 - - - - - - - - -
 
Date/Time
WST
Temp

°C
Wind Pressure Rain
since 9am
mm
Weather Cloud Vis
km
Sea
Height
m
Swell
Dir
 
Speed
knots
Gust
knots
hPa Trend Height
m
Period
s
Dir
24/11:30pm 20.7 E 15 18 1019.0 - - - - - - - - -
24/11:00pm 20.8 E 17 19 1018.7 - - - - - - - - -
24/10:30pm 21.1 E 16 18 1018.9 - - - - - - - - -
24/10:00pm 21.3 E 16 18 1018.9 - - - - - - - - -
24/09:30pm 21.0 E 14 17 1019.1 - - - - - - - - -
24/09:00pm 20.3 ESE 10 13 1019.1 - - - - - - - - -
24/08:30pm 20.9 ESE 9 12 1018.9 - - - - - - - - -
24/08:00pm 20.9 E 8 10 1018.6 - - - - - - - - -
24/07:30pm 20.8 ENE 7 9 1018.4 - - - - - - - - -
24/07:00pm 20.7 E 7 8 1018.1 - - - - - - - - -
24/06:30pm 20.7 E 7 10 1017.8 - - - - - - - - -
24/06:00pm 20.9 ENE 10 11 1017.4 - - - - - - - - -
24/05:30pm 21.1 ENE 11 13 1017.3 - - - - - - - - -
24/05:00pm 21.4 ENE 10 12 1017.3 - - - - - - - - -
24/04:30pm 21.6 ENE 11 13 1017.5 - - - - - - - - -
24/04:00pm 22.0 ENE 12 14 1017.5 - - - - - - - - -
24/03:30pm 22.3 ENE 12 14 1017.5 - - - - - - - - -
24/03:00pm 22.5 E 12 14 1017.9 - - - - - - - - -
24/02:30pm 22.3 E 13 17 1017.9 - - - - - - - - -
24/02:00pm 22.2 E 15 18 1018.1 - - - - - - - - -
24/01:30pm 22.3 E 15 19 1018.4 - - - - - - - - -
24/01:00pm 22.2 E 18 21 1018.6 - - - - - - - - -
24/12:30pm 22.2 E 18 22 1019.1 - - - - - - - - -
24/12:00pm 22.3 E 18 21 1019.5 - - - - - - - - -
24/11:30am 21.8 ESE 18 23 1019.7 - - - - - - - - -
24/11:00am 21.7 ESE 19 23 1020.0 - - - - - - - - -
24/10:30am 21.3 ESE 20 25 1020.2 - - - - - - - - -
24/10:00am 21.0 ESE 21 23 1020.1 - - - - - - - - -
24/09:30am 21.0 ESE 21 24 1020.2 - - - - - - - - -
24/09:00am 20.6 ESE 19 22 1020.1 - - - - - - - - -
24/08:30am 19.6 ESE 16 20 1019.8 - - - - - - - - -
24/08:00am 18.6 ESE 12 17 1019.5 - - - - - - - - -
24/07:30am 17.2 SE 12 14 1019.2 - - - - - - - - -
24/07:00am 16.0 SE 11 13 1018.7 - - - - - - - - -
24/06:30am 15.4 SE 12 13 1018.6 - - - - - - - - -
24/06:00am 15.7 SE 12 13 1018.1 - - - - - - - - -
24/05:30am 15.3 SE 11 13 1018.0 - - - - - - - - -
24/05:00am 15.7 SE 10 13 1017.6 - - - - - - - - -
24/04:30am 15.7 SE 12 13 1017.6 - - - - - - - - -
24/04:00am 16.2 SSE 10 12 1017.5 - - - - - - - - -
24/03:30am 15.8 SSE 9 11 1017.5 - - - - - - - - -
24/03:00am 16.0 SSE 8 8 1017.4 - - - - - - - - -
24/02:30am 16.1 S 7 8 1017.6 - - - - - - - - -
24/02:00am 16.3 S 7 8 1017.5 - - - - - - - - -
24/01:30am 16.7 S 7 9 1017.7 - - - - - - - - -
24/01:00am 17.2 S 6 7 1017.7 - - - - - - - - -
24/12:30am 17.0 S 6 7 1017.9 - - - - - - - - -
24/12:00am 17.4 SSW 7 8 1017.8 - - - - - - - - -
 
Date/Time
WST
Temp

°C
Wind Pressure Rain
since 9am
mm
Weather Cloud Vis
km
Sea
Height
m
Swell
Dir
 
Speed
knots
Gust
knots
hPa Trend Height
m
Period
s
Dir
23/11:30pm 17.9 SW 7 7 1017.9 - - - - - - - - -
23/11:00pm 17.8 SW 8 8 1017.9 - - - - - - - - -
23/10:30pm 17.8 SSW 8 8 1018.0 - - - - - - - - -
23/10:00pm 17.8 SSW 8 8 1018.0 - - - - - - - - -
23/09:30pm 18.4 SW 9 9 1018.1 - - - - - - - - -
23/09:00pm 18.5 SW 9 11 1017.9 - - - - - - - - -
23/08:30pm 18.8 SW 10 11 1017.9 - - - - - - - - -
23/08:00pm 18.5 SW 9 10 1017.7 - - - - - - - - -
23/07:30pm 19.0 NE 4 4 1017.6 - - - - - - - - -
23/07:00pm 19.2 NE 3 4 1017.2 - - - - - - - - -
23/06:30pm 20.7 NE 1 2 1016.9 - - - - - - - - -
23/06:00pm 21.0 NE 3 4 1016.7 - - - - - - - - -
23/05:30pm 21.7 NE 3 4 1016.6 - - - - - - - - -
23/05:00pm 22.1 ENE 7 8 1016.3 - - - - - - - - -
23/04:30pm 22.7 ENE 6 7 1016.4 - - - - - - - - -
23/04:00pm 23.6 ENE 4 5 1016.2 - - - - - - - - -
23/03:30pm 23.4 ENE 7 9 1016.3 - - - - - - - - -
23/03:00pm 23.6 E 9 11 1016.2 - - - - - - - - -
23/02:30pm 23.5 E 10 12 1016.6 - - - - - - - - -
23/02:00pm 23.4 E 11 14 1016.8 - - - - - - - - -
23/01:30pm 23.3 E 14 16 1017.0 - - - - - - - - -
23/01:00pm 23.0 E 15 18 1017.1 - - - - - - - - -
23/12:30pm 22.6 E 17 19 1017.7 - - - - - - - - -
23/12:00pm 23.1 ESE 16 19 1018.4 - - - - - - - - -
23/11:30am 22.3 ESE 19 23 1018.9 - - - - - - - - -
23/11:00am 21.8 ESE 21 25 1019.1 - - - - - - - - -
23/10:30am 21.5 ESE 22 27 1019.6 - - - - - - - - -
23/10:00am 20.9 ESE 21 27 1019.7 - - - - - - - - -
23/09:30am 20.2 ESE 24 28 1019.7 - - - - - - - - -
23/09:00am 19.8 ESE 21 26 1019.6 - - - - - - - - -
23/08:30am 19.6 SE 17 21 1019.4 - - - - - - - - -
23/08:00am 18.6 SE 14 18 1018.7 - - - - - - - - -
23/07:30am 17.8 SE 14 17 1018.2 - - - - - - - - -
23/07:00am 17.0 SE 14 18 1017.9 - - - - - - - - -
23/06:30am 17.2 SSE 15 19 1017.7 - - - - - - - - -
23/06:00am 17.2 SSE 14 17 1017.3 - - - - - - - - -
23/05:30am 17.2 SSE 13 16 1017.3 - - - - - - - - -
23/05:00am 17.2 SSE 12 15 1017.1 - - - - - - - - -
23/04:30am 17.5 SSE 12 15 1017.2 - - - - - - - - -
23/04:00am 18.1 SSE 13 17 1016.8 - - - - - - - - -
23/03:30am 18.2 SSE 14 18 1016.7 - - - - - - - - -
23/03:00am 18.4 SSE 14 17 1016.6 - - - - - - - - -
23/02:30am 18.6 SSE 15 18 1016.8 - - - - - - - - -
23/02:00am 18.8 SSE 14 17 1016.7 - - - - - - - - -
23/01:30am 18.7 SSE 13 16 1016.9 - - - - - - - - -
23/01:00am 17.9 S 12 13 1016.9 - - - - - - - - -
23/12:30am 18.3 S 12 14 1017.1 - - - - - - - - -
23/12:00am 18.6 SSE 12 15 1017.1 - - - - - - - - -
 
Date/Time
WST
Temp

°C
Wind Pressure Rain
since 9am
mm
Weather Cloud Vis
km
Sea
Height
m
Swell
Dir
 
Speed
knots
Gust
knots
hPa Trend Height
m
Period
s
Dir
22/11:30pm 18.6 SSE 11 13 1017.2 - - - - - - - - -
22/11:00pm 18.4 SSE 12 14 1017.3 - - - - - - - - -
22/10:30pm 18.7 SSE 10 13 1017.3 - - - - - - - - -
22/10:00pm 18.5 S 10 13 1017.1 - - - - - - - - -
22/09:30pm 18.6 SSE 9 11 1017.1 - - - - - - - - -
22/09:00pm 18.4 SE 7 10 1016.8 - - - - - - - - -
22/08:30pm 20.2 SE 9 12 1016.8 - - - - - - - - -
22/08:00pm 19.9 S 11 13 1016.2 - - - - - - - - -
22/07:30pm 19.7 S 9 11 1016.1 - - - - - - - - -
22/07:00pm 20.6 SW 11 11 1015.6 - - - - - - - - -
22/06:30pm 20.9 WSW 12 15 1015.2 - - - - - - - - -
22/06:00pm 21.1 WSW 13 16 1015.0 - - - - - - - - -
22/05:30pm 21.7 WSW 13 16 1014.8 - - - - - - - - -
22/05:00pm 22.3 WSW 14 17 1014.7 - - - - - - - - -
22/04:30pm 22.9 WSW 15 18 1014.8 - - - - - - - - -
22/04:00pm 23.4 WSW 15 18 1014.6 - - - - - - - - -
22/03:30pm 24.0 WSW 13 17 1014.7 - - - - - - - - -
22/03:00pm 24.7 WSW 11 13 1014.9 - - - - - - - - -
22/02:30pm 24.4 WSW 12 14 1015.1 - - - - - - - - -
22/02:00pm 24.4 WSW 11 13 1015.5 - - - - - - - - -
22/01:30pm 24.3 WSW 12 14 1016.0 - - - - - - - - -
22/01:00pm 23.6 WSW 13 16 1016.2 - - - - - - - - -
22/12:30pm 24.4 SW 14 16 1016.6 - - - - - - - - -
22/12:00pm 23.5 SW 13 16 1017.1 - - - - - - - - -

Other Formats:

Comma delimited format used in spreadsheet applications
http://www.bom.gov.au/fwo/IDW60701/IDW60701.94307.axf

JavaScript Object Notation format (JSON) in row-major order
http://www.bom.gov.au/fwo/IDW60701/IDW60701.94307.json